Corinth, Mississippi
Current Conditions -  °F | °C
As of 4:35 PM on Thursday 20 Nov 2014 (Local Time) from KCRX Reporting Station
Haze Haze  
Wind Chill: 52°   Ceiling: Unl
Heat Index: 52°   Visibility: 1mi
Dew Point: 27°   Wind: 3mph
Humidity: 38%   Direction: 50°NE
Pressure: 30.21"   Gusts: NA
Location:  34.93°N, 88.53°W
Report Text: KCRX 202235Z AUTO 05003KT 1SM HZ CLR 11/M03 A3021 RMK AO2
Loading
Personal Weather Stations






























Interactive Weather Map New forecast layout! Learn more

10-Day Weather Forecast

Advertisements
Track Severe Weather on mobile